createdAt,value
2022-11-21T00:01:23.870Z,49.65
2022-11-21T00:03:50.196Z,48.40
2022-11-21T00:06:16.569Z,47.87
2022-11-21T00:08:42.894Z,54.57
2022-11-21T00:11:09.269Z,51.13
2022-11-21T00:13:35.619Z,50.67
2022-11-21T00:16:01.933Z,53.50
2022-11-21T00:18:28.234Z,49.97
2022-11-21T00:20:54.563Z,46.07
2022-11-21T00:23:20.866Z,49.43
2022-11-21T00:25:47.177Z,48.30
2022-11-21T00:28:13.495Z,52.73
2022-11-21T00:30:39.812Z,48.70
2022-11-21T00:33:06.121Z,52.47
2022-11-21T00:35:32.898Z,51.70
2022-11-21T00:37:59.215Z,47.00
2022-11-21T00:40:25.529Z,45.40
2022-11-21T00:42:51.838Z,49.20
2022-11-21T00:45:23.895Z,51.08
2022-11-21T00:47:50.727Z,49.63
2022-11-21T00:50:17.047Z,45.90
2022-11-21T00:52:43.414Z,51.43
2022-11-21T00:55:09.722Z,49.17
2022-11-21T00:57:36.043Z,47.13
2022-11-21T01:00:02.360Z,48.63
2022-11-21T01:02:31.918Z,49.07
2022-11-21T01:04:58.221Z,51.00
2022-11-21T01:09:55.915Z,50.88
2022-11-21T01:12:22.224Z,48.70
2022-11-21T01:14:48.557Z,43.57
2022-11-21T01:17:14.887Z,45.22
2022-11-21T01:19:41.208Z,46.33
2022-11-21T01:22:07.525Z,52.03
2022-11-21T01:24:33.834Z,42.33
2022-11-21T01:27:00.140Z,46.20
2022-11-21T01:29:26.464Z,46.90
2022-11-21T01:31:52.841Z,44.63
2022-11-21T01:34:19.149Z,43.25
2022-11-21T01:36:45.461Z,50.85
2022-11-21T01:39:11.837Z,46.47
2022-11-21T01:41:38.142Z,42.53
2022-11-21T01:44:04.467Z,44.30
2022-11-21T01:46:30.787Z,44.63
2022-11-21T01:48:57.378Z,44.38
2022-11-21T01:51:23.697Z,42.65
2022-11-21T01:53:50.009Z,39.80
2022-11-21T01:56:16.335Z,40.90
2022-11-21T01:58:42.689Z,38.65
2022-11-21T02:01:09.144Z,42.17
2022-11-21T02:03:35.519Z,40.45
2022-11-21T02:06:01.853Z,39.63
2022-11-21T02:08:28.170Z,39.42
2022-11-21T02:10:54.541Z,38.17
2022-11-21T02:13:22.863Z,32.97
2022-11-21T02:15:49.173Z,36.53
2022-11-21T02:18:15.478Z,36.22
2022-11-21T02:20:41.792Z,39.00
2022-11-21T02:23:08.103Z,36.08
2022-11-21T02:25:34.424Z,39.17
2022-11-21T02:28:00.721Z,37.33
2022-11-21T02:30:27.925Z,36.30
2022-11-21T02:32:54.241Z,39.25
2022-11-21T02:35:20.569Z,34.97
2022-11-21T02:37:46.914Z,40.92
2022-11-21T02:40:13.233Z,37.85
2022-11-21T02:42:39.553Z,37.92
2022-11-21T02:45:05.865Z,36.55
2022-11-21T02:47:32.233Z,36.50
2022-11-21T02:49:58.545Z,38.60
2022-11-21T02:52:24.894Z,39.20
2022-11-21T02:54:51.214Z,36.47
2022-11-21T02:57:17.569Z,36.10
2022-11-21T02:59:43.875Z,37.70
2022-11-21T03:02:10.182Z,34.40
2022-11-21T03:04:36.514Z,40.65
2022-11-21T03:07:02.919Z,33.88
2022-11-21T03:09:29.296Z,40.22
2022-11-21T03:11:55.634Z,35.42
2022-11-21T03:14:21.955Z,33.90
2022-11-21T03:16:48.257Z,34.05
2022-11-21T03:19:14.578Z,39.13
2022-11-21T03:21:40.906Z,37.78
2022-11-21T03:24:07.220Z,35.47
2022-11-21T03:26:33.540Z,36.38
2022-11-21T03:28:59.874Z,34.42
2022-11-21T03:31:26.207Z,32.10
2022-11-21T03:33:52.537Z,36.78
2022-11-21T03:36:18.854Z,32.42
2022-11-21T03:38:45.155Z,30.73
2022-11-21T03:41:29.320Z,32.70
2022-11-21T03:43:55.641Z,31.92
2022-11-21T03:46:21.960Z,32.83
2022-11-21T03:48:48.264Z,32.88
2022-11-21T03:51:14.593Z,27.30
2022-11-21T03:53:40.903Z,28.35
2022-11-21T03:56:07.210Z,27.37
2022-11-21T03:58:33.526Z,28.65
2022-11-21T04:00:59.980Z,27.83
2022-11-21T04:03:26.294Z,27.55
2022-11-21T04:05:52.613Z,26.35
2022-11-21T04:08:18.930Z,26.87
2022-11-21T04:10:45.244Z,25.48
2022-11-21T04:13:11.550Z,24.40
2022-11-21T04:15:37.872Z,22.70
2022-11-21T04:18:04.192Z,21.98
2022-11-21T04:20:30.508Z,24.42
2022-11-21T04:22:56.816Z,20.10
2022-11-21T04:25:23.121Z,20.35
2022-11-21T04:27:49.450Z,20.58
2022-11-21T04:30:15.783Z,19.75
2022-11-21T04:32:42.103Z,18.00
2022-11-21T04:35:08.414Z,20.33
2022-11-21T04:37:34.745Z,20.50
2022-11-21T04:40:01.058Z,17.45
2022-11-21T04:42:27.396Z,20.67
2022-11-21T04:44:53.786Z,21.45
2022-11-21T04:47:20.106Z,20.48
2022-11-21T04:49:46.422Z,21.15
2022-11-21T04:52:12.917Z,22.50
2022-11-21T04:54:39.288Z,19.92
2022-11-21T04:57:05.757Z,25.73
2022-11-21T04:59:32.099Z,25.67
2022-11-21T05:01:58.418Z,26.27
2022-11-21T05:04:24.790Z,23.55
2022-11-21T05:06:51.146Z,28.75
2022-11-21T05:09:17.755Z,22.73
2022-11-21T05:12:02.838Z,25.85
2022-11-21T05:14:29.399Z,25.67
2022-11-21T05:16:55.970Z,26.90
2022-11-21T05:19:22.302Z,22.77
2022-11-21T05:21:48.620Z,22.83
2022-11-21T05:24:14.930Z,24.95
2022-11-21T05:26:41.362Z,24.02
2022-11-21T05:29:07.672Z,22.02
2022-11-21T05:31:33.990Z,22.40
2022-11-21T05:34:00.289Z,25.52
2022-11-21T05:36:26.617Z,27.40
2022-11-21T05:38:52.943Z,23.67
2022-11-21T05:41:19.260Z,25.75
2022-11-21T05:43:49.118Z,23.25
2022-11-21T05:46:15.521Z,24.83
2022-11-21T05:48:41.838Z,25.45
2022-11-21T05:51:08.156Z,26.98
2022-11-21T05:53:34.463Z,27.48
2022-11-21T05:56:00.846Z,25.65
2022-11-21T05:58:27.150Z,26.87
2022-11-21T06:00:59.773Z,29.98
2022-11-21T06:03:31.000Z,28.23
2022-11-21T06:05:57.468Z,29.00
2022-11-21T06:08:23.769Z,32.17
2022-11-21T06:10:50.100Z,30.20
2022-11-21T06:13:22.664Z,36.20
2022-11-21T06:15:49.333Z,35.03
2022-11-21T06:18:15.669Z,32.75
2022-11-21T06:20:42.305Z,37.22
2022-11-21T06:23:08.671Z,32.40
2022-11-21T06:25:34.973Z,33.85
2022-11-21T06:28:01.295Z,40.42
2022-11-21T06:30:27.593Z,33.97
2022-11-21T06:32:53.973Z,39.08
2022-11-21T06:35:20.341Z,39.33
2022-11-21T06:37:50.747Z,35.50
2022-11-21T06:40:19.649Z,34.33
2022-11-21T06:42:46.009Z,34.40
2022-11-21T06:45:12.394Z,31.50
2022-11-21T06:47:38.707Z,32.00
2022-11-21T06:50:05.173Z,28.20
2022-11-21T06:52:31.474Z,32.60
2022-11-21T06:54:57.804Z,28.35
2022-11-21T06:57:24.101Z,27.70
2022-11-21T06:59:50.452Z,28.15
2022-11-21T07:02:16.766Z,28.15
2022-11-21T07:04:43.090Z,34.58
2022-11-21T07:07:09.526Z,35.17
2022-11-21T07:09:38.139Z,29.83
2022-11-21T07:12:23.254Z,31.00
2022-11-21T07:14:49.585Z,33.55
2022-11-21T07:17:16.091Z,26.92
2022-11-21T07:19:42.447Z,28.20
2022-11-21T07:22:08.769Z,32.40
2022-11-21T07:24:35.362Z,32.00
2022-11-21T07:27:01.679Z,30.02
2022-11-21T07:29:28.227Z,31.90
2022-11-21T07:31:54.777Z,33.33
2022-11-21T07:34:21.124Z,30.17
2022-11-21T07:36:48.786Z,22.90
2022-11-21T07:39:15.125Z,27.02
2022-11-21T07:41:41.452Z,29.85
2022-11-21T07:44:07.764Z,30.88
2022-11-21T07:46:35.793Z,30.40
2022-11-21T07:49:03.778Z,30.95
2022-11-21T07:51:30.345Z,33.17
2022-11-21T07:53:56.736Z,31.90
2022-11-21T07:56:26.617Z,36.22
2022-11-21T07:58:53.099Z,30.15
2022-11-21T08:01:19.496Z,34.50
2022-11-21T08:03:45.847Z,32.63
2022-11-21T08:06:12.331Z,33.47
2022-11-21T08:08:38.674Z,32.92
2022-11-21T08:11:05.253Z,31.73
2022-11-21T08:13:32.451Z,27.27
2022-11-21T08:15:58.799Z,26.30
2022-11-21T08:18:25.113Z,29.15
2022-11-21T08:20:51.426Z,33.30
2022-11-21T08:23:17.750Z,32.83
2022-11-21T08:25:45.310Z,26.35
2022-11-21T08:28:11.690Z,29.25
2022-11-21T08:30:38.045Z,25.83
2022-11-21T08:33:04.374Z,29.33
2022-11-21T08:35:30.707Z,28.30
2022-11-21T08:37:57.375Z,30.90
2022-11-21T08:40:23.728Z,30.27
2022-11-21T08:42:50.063Z,33.30
2022-11-21T08:45:16.410Z,34.50
2022-11-21T08:47:42.728Z,31.17
2022-11-21T08:50:12.276Z,30.23
2022-11-21T08:52:38.615Z,33.45
2022-11-21T08:55:04.925Z,35.83
2022-11-21T08:57:31.853Z,29.52
2022-11-21T08:59:58.153Z,32.50
2022-11-21T09:02:24.464Z,31.25
2022-11-21T09:04:50.859Z,30.90
2022-11-21T09:07:17.249Z,29.02
2022-11-21T09:09:43.756Z,31.75
2022-11-21T09:12:10.149Z,32.30
2022-11-21T09:14:55.558Z,32.40
2022-11-21T09:17:40.721Z,27.03
2022-11-21T09:20:07.102Z,29.08
2022-11-21T09:22:33.469Z,27.70
2022-11-21T09:24:59.786Z,27.95
2022-11-21T09:27:26.104Z,30.90
2022-11-21T09:29:54.211Z,29.13
2022-11-21T09:32:20.844Z,25.83
2022-11-21T09:34:47.231Z,32.57
2022-11-21T09:37:17.013Z,31.02
2022-11-21T09:39:43.317Z,37.07
2022-11-21T09:42:09.654Z,34.17
2022-11-21T09:44:36.221Z,31.20
2022-11-21T09:47:02.623Z,30.65
2022-11-21T09:49:29.205Z,34.80
2022-11-21T09:51:55.711Z,35.10
2022-11-21T09:54:22.031Z,35.40
2022-11-21T09:56:48.604Z,42.80
2022-11-21T09:59:14.917Z,39.05
2022-11-21T10:01:41.241Z,37.83
2022-11-21T10:04:07.598Z,37.38
2022-11-21T10:06:33.964Z,37.38
2022-11-21T10:09:00.704Z,35.95
2022-11-21T10:11:27.022Z,33.33
2022-11-21T10:13:53.335Z,36.38
2022-11-21T10:16:19.638Z,36.28
2022-11-21T10:18:46.000Z,35.67
2022-11-21T10:21:12.368Z,35.58
2022-11-21T10:23:38.693Z,36.50
2022-11-21T10:26:05.097Z,36.45
2022-11-21T10:28:31.445Z,34.70
2022-11-21T10:30:57.761Z,37.08
2022-11-21T10:33:24.075Z,34.13
2022-11-21T10:35:50.394Z,36.83
2022-11-21T10:38:16.710Z,32.45
2022-11-21T10:40:43.073Z,35.22
2022-11-21T10:43:28.200Z,29.75
2022-11-21T10:45:54.553Z,28.87
2022-11-21T10:48:20.865Z,30.80
2022-11-21T10:50:47.203Z,35.22
2022-11-21T10:53:32.422Z,29.85
2022-11-21T10:55:58.788Z,34.83
2022-11-21T10:58:25.391Z,31.42
2022-11-21T11:00:51.813Z,35.40
2022-11-21T11:03:18.420Z,34.97
2022-11-21T11:05:44.756Z,30.37
2022-11-21T11:08:11.100Z,33.75
2022-11-21T11:10:37.421Z,34.40
2022-11-21T11:13:51.231Z,32.63
2022-11-21T11:16:08.859Z,27.20
2022-11-21T11:18:35.291Z,31.27
2022-11-21T11:21:01.619Z,31.40
2022-11-21T11:23:28.050Z,28.52
2022-11-21T11:25:54.433Z,30.80
2022-11-21T11:28:20.987Z,32.85
2022-11-21T11:30:47.367Z,33.28
2022-11-21T11:33:13.681Z,35.53
2022-11-21T11:35:40.603Z,35.13
2022-11-21T11:38:07.189Z,29.25
2022-11-21T11:40:33.594Z,31.58
2022-11-21T11:43:18.925Z,30.83
2022-11-21T11:46:03.710Z,29.48
2022-11-21T11:48:30.091Z,27.08
2022-11-21T11:50:56.417Z,31.40
2022-11-21T11:53:22.769Z,32.92
2022-11-21T11:55:49.109Z,28.42
2022-11-21T11:58:15.435Z,28.92
2022-11-21T12:00:45.118Z,27.60
2022-11-21T12:03:11.434Z,28.60
2022-11-21T12:05:37.752Z,28.12
2022-11-21T12:08:40.040Z,25.95
2022-11-21T12:11:09.340Z,28.67
2022-11-21T12:13:35.708Z,26.83
2022-11-21T12:16:08.661Z,29.83
2022-11-21T12:18:39.355Z,30.88
2022-11-21T12:21:05.679Z,28.10
2022-11-21T12:23:32.266Z,27.23
2022-11-21T12:25:58.584Z,28.00
2022-11-21T12:28:24.962Z,27.52
2022-11-21T12:30:51.410Z,28.42
2022-11-21T12:33:17.735Z,28.17
2022-11-21T12:35:44.047Z,29.20
2022-11-21T12:38:10.373Z,28.23
2022-11-21T12:40:36.723Z,25.55
2022-11-21T12:43:04.653Z,23.95
2022-11-21T12:45:32.190Z,27.50
2022-11-21T12:48:17.386Z,27.33
2022-11-21T12:51:02.483Z,27.52
2022-11-21T12:53:47.487Z,27.00
2022-11-21T12:56:13.788Z,28.40
2022-11-21T12:58:40.100Z,30.00
2022-11-21T13:01:06.531Z,25.55
2022-11-21T13:03:33.581Z,28.33
2022-11-21T13:05:59.984Z,26.80
2022-11-21T13:08:26.320Z,28.75
2022-11-21T13:11:12.620Z,25.55
2022-11-21T13:13:39.116Z,29.52
2022-11-21T13:16:05.459Z,28.60
2022-11-21T13:18:31.838Z,30.00
2022-11-21T13:20:59.158Z,29.40
2022-11-21T13:23:25.535Z,32.03
2022-11-21T13:25:52.677Z,29.83
2022-11-21T13:28:19.058Z,29.83
2022-11-21T13:30:45.404Z,31.08
2022-11-21T13:33:11.986Z,28.10
2022-11-21T13:35:38.374Z,29.90
2022-11-21T13:38:04.767Z,32.08
2022-11-21T13:40:31.095Z,30.02
2022-11-21T13:43:25.181Z,30.98
2022-11-21T13:45:43.933Z,29.52
2022-11-21T13:48:10.273Z,30.62
2022-11-21T13:50:36.640Z,29.27
2022-11-21T13:53:03.059Z,31.15
2022-11-21T13:55:29.471Z,30.10
2022-11-21T13:57:57.727Z,28.95
2022-11-21T14:00:24.118Z,29.45
2022-11-21T14:02:50.470Z,30.30
2022-11-21T14:05:17.399Z,29.73
2022-11-21T14:07:43.951Z,30.17
2022-11-21T14:10:12.188Z,29.17
2022-11-21T14:12:44.324Z,29.95
2022-11-21T14:15:11.221Z,29.75
2022-11-21T14:17:37.624Z,33.45
2022-11-21T14:20:03.941Z,31.40
2022-11-21T14:22:34.747Z,30.02
2022-11-21T14:25:01.940Z,35.92
2022-11-21T14:27:28.298Z,34.63
2022-11-21T14:29:55.203Z,36.25
2022-11-21T14:32:21.551Z,33.28
2022-11-21T14:34:47.911Z,33.42
2022-11-21T14:37:14.278Z,35.20
2022-11-21T14:39:44.152Z,32.00
2022-11-21T14:42:11.579Z,39.53
2022-11-21T14:44:37.984Z,40.38
2022-11-21T14:47:04.376Z,35.95
2022-11-21T14:49:30.789Z,42.08
2022-11-21T14:51:57.152Z,41.40
2022-11-21T14:54:23.523Z,38.83
2022-11-21T14:56:49.952Z,40.00
2022-11-21T14:59:16.274Z,41.97
2022-11-21T15:01:47.551Z,38.58
2022-11-21T15:04:14.294Z,36.55
2022-11-21T15:06:40.630Z,36.22
2022-11-21T15:11:53.513Z,36.58
2022-11-21T15:14:19.938Z,37.63
2022-11-21T15:16:47.308Z,38.00
2022-11-21T15:19:13.804Z,40.90
2022-11-21T15:21:40.162Z,39.63
2022-11-21T15:24:06.561Z,42.28
2022-11-21T15:26:32.879Z,42.67
2022-11-21T15:28:59.247Z,36.75
2022-11-21T15:31:25.754Z,39.60
2022-11-21T15:34:06.430Z,36.53
2022-11-21T15:36:38.684Z,38.28
2022-11-21T15:39:05.594Z,40.17
2022-11-21T15:41:31.973Z,36.83
2022-11-21T15:43:58.279Z,41.33
2022-11-21T15:46:24.667Z,39.67
2022-11-21T15:48:51.048Z,34.47
2022-11-21T15:51:20.492Z,39.60
2022-11-21T15:53:58.342Z,36.03
2022-11-21T15:56:24.746Z,31.87
2022-11-21T15:58:51.126Z,37.00
2022-11-21T16:01:17.533Z,36.72
2022-11-21T16:03:43.998Z,38.17
2022-11-21T16:06:10.607Z,37.75
2022-11-21T16:08:36.988Z,34.25
2022-11-21T16:11:03.330Z,38.38
2022-11-21T16:13:29.673Z,36.80
2022-11-21T16:15:55.985Z,36.08
2022-11-21T16:18:22.671Z,36.30
2022-11-21T16:20:49.067Z,37.83
2022-11-21T16:23:15.379Z,38.75
2022-11-21T16:25:43.075Z,39.40
2022-11-21T16:28:09.406Z,39.55
2022-11-21T16:30:35.774Z,35.00
2022-11-21T16:33:02.086Z,53.05
2022-11-21T16:35:28.412Z,37.53
2022-11-21T16:37:54.794Z,34.15
2022-11-21T16:40:21.175Z,38.47
2022-11-21T16:42:47.550Z,36.72
2022-11-21T16:45:14.075Z,37.40
2022-11-21T16:47:44.370Z,33.22
2022-11-21T16:50:14.814Z,32.80
2022-11-21T16:52:41.119Z,34.05
2022-11-21T16:55:07.505Z,34.47
2022-11-21T16:57:34.059Z,31.62
2022-11-21T17:00:00.768Z,31.40
2022-11-21T17:02:27.161Z,32.03
2022-11-21T17:04:53.501Z,34.35
2022-11-21T17:07:19.887Z,29.25
2022-11-21T17:09:46.258Z,29.50
2022-11-21T17:12:13.465Z,31.60
2022-11-21T17:14:39.776Z,30.70
2022-11-21T17:17:06.100Z,29.83
2022-11-21T17:19:32.490Z,28.02
2022-11-21T17:22:00.217Z,30.73
2022-11-21T17:24:26.818Z,27.65
2022-11-21T17:26:53.304Z,27.37
2022-11-21T17:29:19.608Z,25.27
2022-11-21T17:31:47.040Z,27.30
2022-11-21T17:34:13.496Z,24.95
2022-11-21T17:36:39.947Z,23.67
2022-11-21T17:39:06.284Z,25.65
2022-11-21T17:41:32.747Z,23.38
2022-11-21T17:43:59.759Z,28.12
2022-11-21T17:46:26.213Z,27.42
2022-11-21T17:48:55.299Z,24.42
2022-11-21T17:51:23.941Z,24.45
2022-11-21T17:53:50.261Z,26.40
2022-11-21T17:56:16.572Z,27.80
2022-11-21T17:58:42.900Z,26.25
2022-11-21T18:01:10.610Z,28.75
2022-11-21T18:03:37.311Z,23.98
2022-11-21T18:06:03.633Z,25.10
2022-11-21T18:08:30.022Z,24.42
2022-11-21T18:10:56.456Z,24.17
2022-11-21T18:13:22.786Z,24.45
2022-11-21T18:15:49.142Z,25.25
2022-11-21T18:18:15.527Z,23.17
2022-11-21T18:20:41.860Z,25.40
2022-11-21T18:23:08.604Z,26.00
2022-11-21T18:25:34.959Z,23.87
2022-11-21T18:28:01.286Z,24.33
2022-11-21T18:30:27.598Z,23.42
2022-11-21T18:32:53.897Z,20.55
2022-11-21T18:35:20.242Z,25.05
2022-11-21T18:37:47.000Z,22.42
2022-11-21T18:40:13.346Z,23.52
2022-11-21T18:42:39.659Z,22.02
2022-11-21T18:45:05.991Z,20.20
2022-11-21T18:47:32.311Z,20.80
2022-11-21T18:49:58.622Z,21.77
2022-11-21T18:52:25.023Z,19.70
2022-11-21T18:54:51.333Z,22.73
2022-11-21T18:57:17.651Z,22.37
2022-11-21T18:59:44.079Z,20.40
2022-11-21T19:02:10.436Z,20.12
2022-11-21T19:04:36.766Z,19.73
2022-11-21T19:07:03.359Z,20.48
2022-11-21T19:09:32.681Z,20.75
2022-11-21T19:11:59.337Z,21.77
2022-11-21T19:14:25.788Z,26.70
2022-11-21T19:16:52.325Z,36.65
2022-11-21T19:19:35.269Z,20.15
2022-11-21T19:22:04.356Z,19.02
2022-11-21T19:24:30.665Z,18.00
2022-11-21T19:26:57.205Z,16.98
2022-11-21T19:29:23.520Z,73.97
2022-11-21T19:31:50.070Z,32.55
2022-11-21T19:34:16.596Z,19.37
2022-11-21T19:36:42.999Z,18.20
2022-11-21T19:39:09.371Z,18.45
2022-11-21T19:41:35.722Z,16.58
2022-11-21T19:44:02.054Z,16.80
2022-11-21T19:46:28.874Z,19.50
2022-11-21T19:48:55.278Z,17.52
2022-11-21T19:51:21.617Z,17.48
2022-11-21T19:53:47.983Z,21.35
2022-11-21T19:56:14.303Z,19.30
2022-11-21T19:58:40.613Z,16.45
2022-11-21T20:01:07.307Z,19.75
2022-11-21T20:03:33.737Z,16.30
2022-11-21T20:06:00.046Z,18.23
2022-11-21T20:08:26.380Z,17.40
2022-11-21T20:10:52.739Z,15.88
2022-11-21T20:13:19.077Z,17.00
2022-11-21T20:15:45.403Z,17.33
2022-11-21T20:18:12.647Z,18.33
2022-11-21T20:20:38.983Z,15.93
2022-11-21T20:23:05.719Z,17.20
2022-11-21T20:25:32.032Z,14.65
2022-11-21T20:28:01.575Z,17.77
2022-11-21T20:30:27.929Z,16.62
2022-11-21T20:32:54.653Z,15.82
2022-11-21T20:35:20.970Z,17.33
2022-11-21T20:37:47.274Z,18.02
2022-11-21T20:40:13.588Z,17.02
2022-11-21T20:42:40.406Z,16.20
2022-11-21T20:47:53.039Z,18.95
2022-11-21T20:50:48.693Z,14.80
2022-11-21T20:53:50.766Z,16.30
2022-11-21T20:55:52.140Z,15.27
2022-11-21T20:58:18.458Z,16.80
2022-11-21T21:00:44.801Z,16.12
2022-11-21T21:03:11.111Z,17.42
2022-11-21T21:05:37.454Z,15.85
2022-11-21T21:08:03.926Z,18.00
2022-11-21T21:10:46.005Z,16.70
2022-11-21T21:13:16.635Z,14.27
2022-11-21T21:15:42.962Z,16.83
2022-11-21T21:18:09.292Z,17.83
2022-11-21T21:20:49.353Z,18.73
2022-11-21T21:23:21.926Z,16.85
2022-11-21T21:25:48.239Z,19.62
2022-11-21T21:28:14.573Z,17.55
2022-11-21T21:30:41.192Z,16.70
2022-11-21T21:33:07.502Z,18.85
2022-11-21T21:35:33.842Z,16.75
2022-11-21T21:38:01.920Z,14.90
2022-11-21T21:40:33.112Z,12.80
2022-11-21T21:42:59.504Z,14.35
2022-11-21T21:45:25.809Z,16.45
2022-11-21T21:47:52.431Z,14.05
2022-11-21T21:50:18.733Z,15.88
2022-11-21T21:52:45.042Z,13.43
2022-11-21T21:55:11.892Z,15.07
2022-11-21T21:57:43.546Z,14.25
2022-11-21T22:00:12.448Z,15.52
2022-11-21T22:02:39.832Z,14.50
2022-11-21T22:05:06.149Z,14.10
2022-11-21T22:07:32.552Z,15.23
2022-11-21T22:09:58.921Z,14.73
2022-11-21T22:12:25.520Z,13.98
2022-11-21T22:14:51.818Z,14.87
2022-11-21T22:17:18.175Z,17.17
2022-11-21T22:19:44.487Z,16.62
2022-11-21T22:22:10.830Z,18.60
2022-11-21T22:24:39.483Z,16.37
2022-11-21T22:27:06.073Z,16.48
2022-11-21T22:29:32.394Z,16.27
2022-11-21T22:31:58.723Z,15.00
2022-11-21T22:34:25.114Z,15.45
2022-11-21T22:36:51.438Z,18.08
2022-11-21T22:39:18.152Z,17.30
2022-11-21T22:41:44.566Z,14.48
2022-11-21T22:44:10.896Z,15.73
2022-11-21T22:46:37.382Z,14.48
2022-11-21T22:49:03.811Z,14.07
2022-11-21T22:51:30.386Z,13.62
2022-11-21T22:53:56.741Z,14.48
2022-11-21T22:56:23.091Z,14.15
2022-11-21T22:58:49.421Z,15.73
2022-11-21T23:01:15.785Z,14.75
2022-11-21T23:03:42.165Z,14.82
2022-11-21T23:06:08.497Z,13.25
2022-11-21T23:08:34.821Z,15.30
2022-11-21T23:11:01.123Z,12.48
2022-11-21T23:13:27.484Z,16.40
2022-11-21T23:15:53.799Z,13.20
2022-11-21T23:18:20.102Z,14.70
2022-11-21T23:20:46.571Z,13.90
2022-11-21T23:23:12.919Z,13.80
2022-11-21T23:25:39.338Z,13.25
2022-11-21T23:28:05.699Z,16.90
2022-11-21T23:30:32.051Z,14.52
2022-11-21T23:32:58.364Z,15.55
2022-11-21T23:35:24.680Z,13.57
2022-11-21T23:37:51.015Z,14.27
2022-11-21T23:40:17.347Z,15.07
2022-11-21T23:42:43.732Z,15.40
2022-11-21T23:45:10.086Z,16.77
2022-11-21T23:47:36.416Z,14.32
2022-11-21T23:50:02.721Z,15.43
2022-11-21T23:52:29.082Z,17.75
2022-11-21T23:54:55.925Z,16.10
2022-11-21T23:57:22.221Z,13.80
2022-11-21T23:59:48.570Z,13.60
